sensor_id;sensor_type;location;lat;lon;timestamp;P1;durP1;ratioP1;P2;durP2;ratioP2
19735;SDS011;32064;49.310;8.646;2023-01-23T00:01:16;7.07;;;6.07;;
19735;SDS011;32064;49.310;8.646;2023-01-23T00:03:43;6.50;;;5.83;;
19735;SDS011;32064;49.310;8.646;2023-01-23T00:06:13;6.87;;;6.17;;
19735;SDS011;32064;49.310;8.646;2023-01-23T00:08:40;7.10;;;6.40;;
19735;SDS011;32064;49.310;8.646;2023-01-23T00:11:16;6.63;;;6.03;;
19735;SDS011;32064;49.310;8.646;2023-01-23T00:13:45;7.77;;;6.10;;
19735;SDS011;32064;49.310;8.646;2023-01-23T00:16:14;8.87;;;6.50;;
19735;SDS011;32064;49.310;8.646;2023-01-23T00:18:42;6.80;;;6.10;;
19735;SDS011;32064;49.310;8.646;2023-01-23T00:21:10;7.93;;;6.17;;
19735;SDS011;32064;49.310;8.646;2023-01-23T00:23:39;6.63;;;5.93;;
19735;SDS011;32064;49.310;8.646;2023-01-23T00:26:07;7.40;;;6.33;;
19735;SDS011;32064;49.310;8.646;2023-01-23T00:28:36;7.10;;;6.07;;
19735;SDS011;32064;49.310;8.646;2023-01-23T00:31:05;7.13;;;5.90;;
19735;SDS011;32064;49.310;8.646;2023-01-23T00:33:32;6.90;;;6.20;;
19735;SDS011;32064;49.310;8.646;2023-01-23T00:35:58;8.73;;;6.27;;
19735;SDS011;32064;49.310;8.646;2023-01-23T00:38:25;6.43;;;5.83;;
19735;SDS011;32064;49.310;8.646;2023-01-23T00:40:50;6.57;;;5.93;;
19735;SDS011;32064;49.310;8.646;2023-01-23T00:43:16;6.33;;;5.53;;
19735;SDS011;32064;49.310;8.646;2023-01-23T00:45:41;6.37;;;5.77;;
19735;SDS011;32064;49.310;8.646;2023-01-23T00:48:07;6.57;;;5.97;;
19735;SDS011;32064;49.310;8.646;2023-01-23T00:50:32;7.63;;;6.90;;
19735;SDS011;32064;49.310;8.646;2023-01-23T00:52:58;7.50;;;6.63;;
19735;SDS011;32064;49.310;8.646;2023-01-23T00:55:23;6.47;;;5.87;;
19735;SDS011;32064;49.310;8.646;2023-01-23T00:57:48;7.40;;;6.70;;
19735;SDS011;32064;49.310;8.646;2023-01-23T01:00:14;6.87;;;6.00;;
19735;SDS011;32064;49.310;8.646;2023-01-23T01:02:40;7.30;;;6.53;;
19735;SDS011;32064;49.310;8.646;2023-01-23T01:05:05;6.77;;;5.83;;
19735;SDS011;32064;49.310;8.646;2023-01-23T01:07:31;7.10;;;6.37;;
19735;SDS011;32064;49.310;8.646;2023-01-23T01:09:57;7.43;;;6.30;;
19735;SDS011;32064;49.310;8.646;2023-01-23T01:12:22;7.77;;;6.70;;
19735;SDS011;32064;49.310;8.646;2023-01-23T01:14:47;7.57;;;6.70;;
19735;SDS011;32064;49.310;8.646;2023-01-23T01:17:13;8.47;;;6.83;;
19735;SDS011;32064;49.310;8.646;2023-01-23T01:19:38;9.03;;;8.13;;
19735;SDS011;32064;49.310;8.646;2023-01-23T01:22:04;10.27;;;9.33;;
19735;SDS011;32064;49.310;8.646;2023-01-23T01:24:29;11.03;;;9.23;;
19735;SDS011;32064;49.310;8.646;2023-01-23T01:26:54;8.40;;;7.10;;
19735;SDS011;32064;49.310;8.646;2023-01-23T01:29:20;7.90;;;6.60;;
19735;SDS011;32064;49.310;8.646;2023-01-23T01:31:45;8.00;;;7.07;;
19735;SDS011;32064;49.310;8.646;2023-01-23T01:34:10;9.03;;;7.77;;
19735;SDS011;32064;49.310;8.646;2023-01-23T01:36:38;9.03;;;7.30;;
19735;SDS011;32064;49.310;8.646;2023-01-23T01:39:03;7.33;;;6.63;;
19735;SDS011;32064;49.310;8.646;2023-01-23T01:41:29;7.33;;;6.63;;
19735;SDS011;32064;49.310;8.646;2023-01-23T01:43:55;8.03;;;7.17;;
19735;SDS011;32064;49.310;8.646;2023-01-23T01:46:28;7.57;;;6.87;;
19735;SDS011;32064;49.310;8.646;2023-01-23T01:51:32;7.40;;;6.60;;
19735;SDS011;32064;49.310;8.646;2023-01-23T01:56:31;8.17;;;7.00;;
19735;SDS011;32064;49.310;8.646;2023-01-23T01:59:03;6.77;;;6.00;;
19735;SDS011;32064;49.310;8.646;2023-01-23T02:01:30;7.33;;;6.63;;
19735;SDS011;32064;49.310;8.646;2023-01-23T02:03:56;6.77;;;6.17;;
19735;SDS011;32064;49.310;8.646;2023-01-23T02:06:22;7.57;;;6.37;;
19735;SDS011;32064;49.310;8.646;2023-01-23T02:08:51;7.70;;;6.93;;
19735;SDS011;32064;49.310;8.646;2023-01-23T02:11:23;6.77;;;5.93;;
19735;SDS011;32064;49.310;8.646;2023-01-23T02:13:48;7.03;;;6.33;;
19735;SDS011;32064;49.310;8.646;2023-01-23T02:16:16;6.57;;;5.93;;
19735;SDS011;32064;49.310;8.646;2023-01-23T02:18:44;7.53;;;6.53;;
19735;SDS011;32064;49.310;8.646;2023-01-23T02:21:19;7.03;;;6.20;;
19735;SDS011;32064;49.310;8.646;2023-01-23T02:24:10;6.87;;;6.03;;
19735;SDS011;32064;49.310;8.646;2023-01-23T02:26:36;7.20;;;6.50;;
19735;SDS011;32064;49.310;8.646;2023-01-23T02:29:04;7.20;;;6.50;;
19735;SDS011;32064;49.310;8.646;2023-01-23T02:31:31;7.03;;;6.03;;
19735;SDS011;32064;49.310;8.646;2023-01-23T02:33:57;7.23;;;6.43;;
19735;SDS011;32064;49.310;8.646;2023-01-23T02:36:25;7.83;;;6.63;;
19735;SDS011;32064;49.310;8.646;2023-01-23T02:39:15;9.43;;;7.60;;
19735;SDS011;32064;49.310;8.646;2023-01-23T02:41:44;11.83;;;8.33;;
19735;SDS011;32064;49.310;8.646;2023-01-23T02:44:14;7.73;;;6.93;;
19735;SDS011;32064;49.310;8.646;2023-01-23T02:46:44;10.00;;;7.13;;
19735;SDS011;32064;49.310;8.646;2023-01-23T02:49:09;7.80;;;6.70;;
19735;SDS011;32064;49.310;8.646;2023-01-23T02:51:35;8.10;;;6.90;;
19735;SDS011;32064;49.310;8.646;2023-01-23T02:54:01;9.47;;;8.07;;
19735;SDS011;32064;49.310;8.646;2023-01-23T02:56:26;9.53;;;8.00;;
19735;SDS011;32064;49.310;8.646;2023-01-23T02:58:52;9.33;;;7.63;;
19735;SDS011;32064;49.310;8.646;2023-01-23T03:01:36;9.03;;;7.10;;
19735;SDS011;32064;49.310;8.646;2023-01-23T03:04:02;7.37;;;6.53;;
19735;SDS011;32064;49.310;8.646;2023-01-23T03:06:31;7.80;;;6.87;;
19735;SDS011;32064;49.310;8.646;2023-01-23T03:09:03;11.60;;;7.47;;
19735;SDS011;32064;49.310;8.646;2023-01-23T03:11:31;7.53;;;6.70;;
19735;SDS011;32064;49.310;8.646;2023-01-23T03:13:58;9.40;;;7.07;;
19735;SDS011;32064;49.310;8.646;2023-01-23T03:16:24;7.17;;;6.23;;
19735;SDS011;32064;49.310;8.646;2023-01-23T03:18:49;7.23;;;6.53;;
19735;SDS011;32064;49.310;8.646;2023-01-23T03:21:15;7.30;;;6.60;;
19735;SDS011;32064;49.310;8.646;2023-01-23T03:23:40;8.03;;;7.23;;
19735;SDS011;32064;49.310;8.646;2023-01-23T03:26:08;7.43;;;6.47;;
19735;SDS011;32064;49.310;8.646;2023-01-23T03:28:35;8.13;;;6.97;;
19735;SDS011;32064;49.310;8.646;2023-01-23T03:31:19;8.23;;;5.97;;
19735;SDS011;32064;49.310;8.646;2023-01-23T03:33:45;6.87;;;6.07;;
19735;SDS011;32064;49.310;8.646;2023-01-23T03:36:11;6.47;;;5.50;;
19735;SDS011;32064;49.310;8.646;2023-01-23T03:38:37;6.40;;;5.27;;
19735;SDS011;32064;49.310;8.646;2023-01-23T03:41:03;6.20;;;5.60;;
19735;SDS011;32064;49.310;8.646;2023-01-23T03:43:48;6.50;;;5.80;;
19735;SDS011;32064;49.310;8.646;2023-01-23T03:46:13;5.80;;;5.20;;
19735;SDS011;32064;49.310;8.646;2023-01-23T03:48:38;6.13;;;5.30;;
19735;SDS011;32064;49.310;8.646;2023-01-23T03:51:04;5.80;;;5.07;;
19735;SDS011;32064;49.310;8.646;2023-01-23T03:53:31;5.43;;;4.73;;
19735;SDS011;32064;49.310;8.646;2023-01-23T03:55:56;5.17;;;4.67;;
19735;SDS011;32064;49.310;8.646;2023-01-23T03:58:22;5.30;;;4.80;;
19735;SDS011;32064;49.310;8.646;2023-01-23T04:00:47;5.83;;;5.10;;
19735;SDS011;32064;49.310;8.646;2023-01-23T04:03:13;5.20;;;4.70;;
19735;SDS011;32064;49.310;8.646;2023-01-23T04:05:38;6.60;;;4.60;;
19735;SDS011;32064;49.310;8.646;2023-01-23T04:08:04;5.10;;;4.60;;
19735;SDS011;32064;49.310;8.646;2023-01-23T04:10:29;4.93;;;4.47;;
19735;SDS011;32064;49.310;8.646;2023-01-23T04:12:54;4.73;;;4.23;;
19735;SDS011;32064;49.310;8.646;2023-01-23T04:15:20;4.97;;;4.47;;
19735;SDS011;32064;49.310;8.646;2023-01-23T04:17:45;5.03;;;4.60;;
19735;SDS011;32064;49.310;8.646;2023-01-23T04:20:11;5.63;;;4.70;;
19735;SDS011;32064;49.310;8.646;2023-01-23T04:22:37;5.63;;;5.07;;
19735;SDS011;32064;49.310;8.646;2023-01-23T04:25:03;5.10;;;4.50;;
19735;SDS011;32064;49.310;8.646;2023-01-23T04:27:29;5.70;;;5.00;;
19735;SDS011;32064;49.310;8.646;2023-01-23T04:29:55;6.40;;;5.57;;
19735;SDS011;32064;49.310;8.646;2023-01-23T04:32:22;5.60;;;4.70;;
19735;SDS011;32064;49.310;8.646;2023-01-23T04:34:47;6.47;;;5.60;;
19735;SDS011;32064;49.310;8.646;2023-01-23T04:37:13;5.97;;;5.23;;
19735;SDS011;32064;49.310;8.646;2023-01-23T04:39:38;6.30;;;5.30;;
19735;SDS011;32064;49.310;8.646;2023-01-23T04:42:04;6.10;;;5.50;;
19735;SDS011;32064;49.310;8.646;2023-01-23T04:44:29;5.80;;;5.20;;
19735;SDS011;32064;49.310;8.646;2023-01-23T04:46:54;7.60;;;5.90;;
19735;SDS011;32064;49.310;8.646;2023-01-23T04:49:21;8.27;;;6.30;;
19735;SDS011;32064;49.310;8.646;2023-01-23T04:51:47;6.63;;;5.93;;
19735;SDS011;32064;49.310;8.646;2023-01-23T04:54:14;6.77;;;5.90;;
19735;SDS011;32064;49.310;8.646;2023-01-23T04:56:40;6.63;;;5.90;;
19735;SDS011;32064;49.310;8.646;2023-01-23T04:59:06;6.47;;;5.80;;
19735;SDS011;32064;49.310;8.646;2023-01-23T05:01:32;6.67;;;5.90;;
19735;SDS011;32064;49.310;8.646;2023-01-23T05:03:57;8.17;;;5.70;;
19735;SDS011;32064;49.310;8.646;2023-01-23T05:06:23;6.53;;;5.83;;
19735;SDS011;32064;49.310;8.646;2023-01-23T05:08:49;7.30;;;5.57;;
19735;SDS011;32064;49.310;8.646;2023-01-23T05:11:14;6.30;;;5.63;;
19735;SDS011;32064;49.310;8.646;2023-01-23T05:13:40;7.47;;;6.20;;
19735;SDS011;32064;49.310;8.646;2023-01-23T05:16:05;6.63;;;6.03;;
19735;SDS011;32064;49.310;8.646;2023-01-23T05:18:31;7.77;;;5.80;;
19735;SDS011;32064;49.310;8.646;2023-01-23T05:20:56;6.77;;;6.03;;
19735;SDS011;32064;49.310;8.646;2023-01-23T05:23:22;6.20;;;5.60;;
19735;SDS011;32064;49.310;8.646;2023-01-23T05:25:47;6.50;;;5.90;;
19735;SDS011;32064;49.310;8.646;2023-01-23T05:28:13;7.50;;;6.27;;
19735;SDS011;32064;49.310;8.646;2023-01-23T05:30:38;7.07;;;6.37;;
19735;SDS011;32064;49.310;8.646;2023-01-23T05:33:03;6.70;;;5.93;;
19735;SDS011;32064;49.310;8.646;2023-01-23T05:35:29;7.20;;;6.43;;
19735;SDS011;32064;49.310;8.646;2023-01-23T05:37:54;7.27;;;6.37;;
19735;SDS011;32064;49.310;8.646;2023-01-23T05:40:20;6.20;;;5.60;;
19735;SDS011;32064;49.310;8.646;2023-01-23T05:42:46;6.77;;;6.13;;
19735;SDS011;32064;49.310;8.646;2023-01-23T05:45:12;7.50;;;5.93;;
19735;SDS011;32064;49.310;8.646;2023-01-23T05:47:38;8.23;;;5.97;;
19735;SDS011;32064;49.310;8.646;2023-01-23T05:50:04;6.87;;;5.80;;
19735;SDS011;32064;49.310;8.646;2023-01-23T05:52:32;6.93;;;6.23;;
19735;SDS011;32064;49.310;8.646;2023-01-23T05:55:00;7.43;;;6.23;;
19735;SDS011;32064;49.310;8.646;2023-01-23T05:57:26;6.97;;;5.80;;
19735;SDS011;32064;49.310;8.646;2023-01-23T05:59:51;7.77;;;6.43;;
19735;SDS011;32064;49.310;8.646;2023-01-23T06:02:16;6.97;;;6.10;;
19735;SDS011;32064;49.310;8.646;2023-01-23T06:04:42;7.73;;;6.17;;
19735;SDS011;32064;49.310;8.646;2023-01-23T06:07:11;6.60;;;5.90;;
19735;SDS011;32064;49.310;8.646;2023-01-23T06:09:38;7.67;;;6.53;;
19735;SDS011;32064;49.310;8.646;2023-01-23T06:12:04;7.00;;;6.23;;
19735;SDS011;32064;49.310;8.646;2023-01-23T06:14:30;8.03;;;6.47;;
19735;SDS011;32064;49.310;8.646;2023-01-23T06:16:55;6.77;;;5.83;;
19735;SDS011;32064;49.310;8.646;2023-01-23T06:19:20;6.33;;;5.73;;
19735;SDS011;32064;49.310;8.646;2023-01-23T06:21:46;7.40;;;5.97;;
19735;SDS011;32064;49.310;8.646;2023-01-23T06:24:11;7.50;;;6.70;;
19735;SDS011;32064;49.310;8.646;2023-01-23T06:26:37;7.77;;;6.67;;
19735;SDS011;32064;49.310;8.646;2023-01-23T06:29:02;6.93;;;6.17;;
19735;SDS011;32064;49.310;8.646;2023-01-23T06:31:28;6.93;;;6.23;;
19735;SDS011;32064;49.310;8.646;2023-01-23T06:33:56;6.70;;;6.00;;
19735;SDS011;32064;49.310;8.646;2023-01-23T06:36:22;6.73;;;6.03;;
19735;SDS011;32064;49.310;8.646;2023-01-23T06:38:48;6.80;;;6.10;;
19735;SDS011;32064;49.310;8.646;2023-01-23T06:41:14;8.93;;;6.90;;
19735;SDS011;32064;49.310;8.646;2023-01-23T06:43:39;7.43;;;6.40;;
19735;SDS011;32064;49.310;8.646;2023-01-23T06:46:08;7.33;;;6.43;;
19735;SDS011;32064;49.310;8.646;2023-01-23T06:48:34;8.23;;;6.63;;
19735;SDS011;32064;49.310;8.646;2023-01-23T06:51:00;8.50;;;6.73;;
19735;SDS011;32064;49.310;8.646;2023-01-23T06:53:26;7.27;;;5.97;;
19735;SDS011;32064;49.310;8.646;2023-01-23T06:55:51;7.07;;;6.37;;
19735;SDS011;32064;49.310;8.646;2023-01-23T06:58:17;7.40;;;6.33;;
19735;SDS011;32064;49.310;8.646;2023-01-23T07:00:43;7.17;;;6.23;;
19735;SDS011;32064;49.310;8.646;2023-01-23T07:03:09;8.43;;;6.30;;
19735;SDS011;32064;49.310;8.646;2023-01-23T07:05:36;8.23;;;6.80;;
19735;SDS011;32064;49.310;8.646;2023-01-23T07:08:04;8.20;;;7.10;;
19735;SDS011;32064;49.310;8.646;2023-01-23T07:10:30;7.83;;;7.00;;
19735;SDS011;32064;49.310;8.646;2023-01-23T07:12:56;7.63;;;6.80;;
19735;SDS011;32064;49.310;8.646;2023-01-23T07:15:21;7.87;;;6.47;;
19735;SDS011;32064;49.310;8.646;2023-01-23T07:17:47;7.53;;;6.27;;
19735;SDS011;32064;49.310;8.646;2023-01-23T07:20:12;7.00;;;6.30;;
19735;SDS011;32064;49.310;8.646;2023-01-23T07:22:38;7.07;;;6.23;;
19735;SDS011;32064;49.310;8.646;2023-01-23T07:25:03;6.30;;;5.70;;
19735;SDS011;32064;49.310;8.646;2023-01-23T07:27:29;7.10;;;6.17;;
19735;SDS011;32064;49.310;8.646;2023-01-23T07:29:55;7.53;;;6.17;;
19735;SDS011;32064;49.310;8.646;2023-01-23T07:32:20;7.03;;;6.20;;
19735;SDS011;32064;49.310;8.646;2023-01-23T07:34:46;6.27;;;5.50;;
19735;SDS011;32064;49.310;8.646;2023-01-23T07:37:11;7.00;;;5.93;;
19735;SDS011;32064;49.310;8.646;2023-01-23T07:39:36;7.93;;;5.73;;
19735;SDS011;32064;49.310;8.646;2023-01-23T07:42:02;6.97;;;5.63;;
19735;SDS011;32064;49.310;8.646;2023-01-23T07:44:27;7.30;;;5.90;;
19735;SDS011;32064;49.310;8.646;2023-01-23T07:46:53;7.80;;;6.33;;
19735;SDS011;32064;49.310;8.646;2023-01-23T07:49:18;6.37;;;5.43;;
19735;SDS011;32064;49.310;8.646;2023-01-23T07:51:44;6.57;;;5.87;;
19735;SDS011;32064;49.310;8.646;2023-01-23T07:54:09;7.87;;;6.33;;
19735;SDS011;32064;49.310;8.646;2023-01-23T07:56:35;7.17;;;5.73;;
19735;SDS011;32064;49.310;8.646;2023-01-23T07:59:00;7.77;;;6.53;;
19735;SDS011;32064;49.310;8.646;2023-01-23T08:01:25;8.27;;;6.73;;
19735;SDS011;32064;49.310;8.646;2023-01-23T08:03:52;10.00;;;6.63;;
19735;SDS011;32064;49.310;8.646;2023-01-23T08:06:17;8.47;;;6.90;;
19735;SDS011;32064;49.310;8.646;2023-01-23T08:08:43;7.70;;;6.40;;
19735;SDS011;32064;49.310;8.646;2023-01-23T08:11:12;7.63;;;6.53;;
19735;SDS011;32064;49.310;8.646;2023-01-23T08:13:37;8.50;;;6.97;;
19735;SDS011;32064;49.310;8.646;2023-01-23T08:16:03;8.30;;;6.63;;
19735;SDS011;32064;49.310;8.646;2023-01-23T08:18:30;8.37;;;6.93;;
19735;SDS011;32064;49.310;8.646;2023-01-23T08:20:57;8.90;;;6.47;;
19735;SDS011;32064;49.310;8.646;2023-01-23T08:23:24;8.33;;;6.87;;
19735;SDS011;32064;49.310;8.646;2023-01-23T08:25:51;7.87;;;6.80;;
19735;SDS011;32064;49.310;8.646;2023-01-23T08:28:18;9.23;;;7.47;;
19735;SDS011;32064;49.310;8.646;2023-01-23T08:30:43;8.43;;;6.97;;
19735;SDS011;32064;49.310;8.646;2023-01-23T08:33:09;8.20;;;7.00;;
19735;SDS011;32064;49.310;8.646;2023-01-23T08:35:34;8.90;;;6.93;;
19735;SDS011;32064;49.310;8.646;2023-01-23T08:38:00;10.10;;;7.53;;
19735;SDS011;32064;49.310;8.646;2023-01-23T08:40:26;9.17;;;7.60;;
19735;SDS011;32064;49.310;8.646;2023-01-23T08:42:52;11.03;;;7.80;;
19735;SDS011;32064;49.310;8.646;2023-01-23T08:45:17;10.37;;;7.57;;
19735;SDS011;32064;49.310;8.646;2023-01-23T08:47:43;11.00;;;8.00;;
19735;SDS011;32064;49.310;8.646;2023-01-23T08:50:08;10.20;;;8.27;;
19735;SDS011;32064;49.310;8.646;2023-01-23T08:52:35;9.50;;;7.87;;
19735;SDS011;32064;49.310;8.646;2023-01-23T08:55:00;10.93;;;8.00;;
19735;SDS011;32064;49.310;8.646;2023-01-23T08:57:25;9.67;;;7.97;;
19735;SDS011;32064;49.310;8.646;2023-01-23T08:59:51;10.93;;;8.07;;
19735;SDS011;32064;49.310;8.646;2023-01-23T09:02:16;11.70;;;8.07;;
19735;SDS011;32064;49.310;8.646;2023-01-23T09:04:42;9.20;;;7.97;;
19735;SDS011;32064;49.310;8.646;2023-01-23T09:07:07;10.90;;;8.70;;
19735;SDS011;32064;49.310;8.646;2023-01-23T09:09:33;11.03;;;8.17;;
19735;SDS011;32064;49.310;8.646;2023-01-23T09:11:58;11.97;;;8.70;;
19735;SDS011;32064;49.310;8.646;2023-01-23T09:14:23;8.40;;;7.07;;
19735;SDS011;32064;49.310;8.646;2023-01-23T09:16:49;9.73;;;7.50;;
19735;SDS011;32064;49.310;8.646;2023-01-23T09:19:14;7.40;;;5.87;;
19735;SDS011;32064;49.310;8.646;2023-01-23T09:21:40;7.53;;;5.50;;
19735;SDS011;32064;49.310;8.646;2023-01-23T09:24:05;7.43;;;5.67;;
19735;SDS011;32064;49.310;8.646;2023-01-23T09:26:31;5.90;;;5.30;;
19735;SDS011;32064;49.310;8.646;2023-01-23T09:28:56;7.97;;;6.17;;
19735;SDS011;32064;49.310;8.646;2023-01-23T09:31:21;6.13;;;5.40;;
19735;SDS011;32064;49.310;8.646;2023-01-23T09:33:47;7.23;;;5.30;;
19735;SDS011;32064;49.310;8.646;2023-01-23T09:36:13;6.53;;;4.80;;
19735;SDS011;32064;49.310;8.646;2023-01-23T09:38:38;9.13;;;6.00;;
19735;SDS011;32064;49.310;8.646;2023-01-23T09:41:15;7.60;;;5.83;;
19735;SDS011;32064;49.310;8.646;2023-01-23T09:43:47;7.47;;;5.33;;
19735;SDS011;32064;49.310;8.646;2023-01-23T09:51:48;7.93;;;6.37;;
19735;SDS011;32064;49.310;8.646;2023-01-23T09:56:56;6.77;;;5.77;;
19735;SDS011;32064;49.310;8.646;2023-01-23T09:59:35;6.93;;;5.63;;
19735;SDS011;32064;49.310;8.646;2023-01-23T10:02:09;7.40;;;5.70;;
19735;SDS011;32064;49.310;8.646;2023-01-23T10:04:44;7.07;;;5.83;;
19735;SDS011;32064;49.310;8.646;2023-01-23T10:19:29;7.63;;;6.30;;
19735;SDS011;32064;49.310;8.646;2023-01-23T10:24:44;6.60;;;5.77;;
19735;SDS011;32064;49.310;8.646;2023-01-23T10:30:04;6.77;;;5.77;;
19735;SDS011;32064;49.310;8.646;2023-01-23T10:32:45;6.33;;;5.57;;
19735;SDS011;32064;49.310;8.646;2023-01-23T10:35:17;7.27;;;5.73;;
19735;SDS011;32064;49.310;8.646;2023-01-23T10:38:02;7.00;;;5.77;;
19735;SDS011;32064;49.310;8.646;2023-01-23T10:40:42;6.87;;;5.80;;
19735;SDS011;32064;49.310;8.646;2023-01-23T10:43:26;5.43;;;4.87;;
19735;SDS011;32064;49.310;8.646;2023-01-23T10:45:52;6.60;;;5.57;;
19735;SDS011;32064;49.310;8.646;2023-01-23T10:54:10;7.43;;;5.20;;
19735;SDS011;32064;49.310;8.646;2023-01-23T10:59:21;6.10;;;5.50;;
19735;SDS011;32064;49.310;8.646;2023-01-23T11:01:55;6.03;;;5.03;;
19735;SDS011;32064;49.310;8.646;2023-01-23T11:04:23;6.37;;;5.37;;
19735;SDS011;32064;49.310;8.646;2023-01-23T11:09:25;6.40;;;5.30;;
19735;SDS011;32064;49.310;8.646;2023-01-23T11:12:00;7.47;;;5.90;;
19735;SDS011;32064;49.310;8.646;2023-01-23T11:14:30;6.70;;;5.33;;
19735;SDS011;32064;49.310;8.646;2023-01-23T11:16:59;6.73;;;5.70;;
19735;SDS011;32064;49.310;8.646;2023-01-23T11:19:28;10.00;;;7.47;;
19735;SDS011;32064;49.310;8.646;2023-01-23T11:21:56;5.97;;;5.37;;
19735;SDS011;32064;49.310;8.646;2023-01-23T11:26:59;6.53;;;5.57;;
19735;SDS011;32064;49.310;8.646;2023-01-23T11:29:28;7.27;;;6.00;;
19735;SDS011;32064;49.310;8.646;2023-01-23T11:32:01;6.63;;;5.93;;
19735;SDS011;32064;49.310;8.646;2023-01-23T11:34:35;8.50;;;6.60;;
19735;SDS011;32064;49.310;8.646;2023-01-23T11:37:27;7.00;;;5.20;;
19735;SDS011;32064;49.310;8.646;2023-01-23T11:40:00;7.47;;;5.93;;
19735;SDS011;32064;49.310;8.646;2023-01-23T11:42:29;7.80;;;5.67;;
19735;SDS011;32064;49.310;8.646;2023-01-23T11:44:55;7.07;;;5.73;;
19735;SDS011;32064;49.310;8.646;2023-01-23T11:53:24;6.80;;;5.93;;
19735;SDS011;32064;49.310;8.646;2023-01-23T12:12:45;7.17;;;6.30;;
19735;SDS011;32064;49.310;8.646;2023-01-23T12:15:37;7.60;;;6.80;;
19735;SDS011;32064;49.310;8.646;2023-01-23T12:20:53;6.57;;;5.43;;
19735;SDS011;32064;49.310;8.646;2023-01-23T12:23:38;6.67;;;5.90;;
19735;SDS011;32064;49.310;8.646;2023-01-23T12:26:23;7.13;;;5.67;;
19735;SDS011;32064;49.310;8.646;2023-01-23T12:37:34;6.57;;;5.80;;
19735;SDS011;32064;49.310;8.646;2023-01-23T12:40:13;6.43;;;5.30;;
19735;SDS011;32064;49.310;8.646;2023-01-23T12:42:50;6.67;;;5.63;;
19735;SDS011;32064;49.310;8.646;2023-01-23T12:45:26;6.57;;;4.97;;
19735;SDS011;32064;49.310;8.646;2023-01-23T12:47:56;6.47;;;5.47;;
19735;SDS011;32064;49.310;8.646;2023-01-23T12:50:35;6.27;;;5.17;;
19735;SDS011;32064;49.310;8.646;2023-01-23T12:53:11;6.63;;;5.40;;
19735;SDS011;32064;49.310;8.646;2023-01-23T12:58:31;7.47;;;6.00;;
19735;SDS011;32064;49.310;8.646;2023-01-23T13:06:57;6.07;;;5.27;;
19735;SDS011;32064;49.310;8.646;2023-01-23T13:12:31;5.77;;;5.10;;
19735;SDS011;32064;49.310;8.646;2023-01-23T13:17:57;5.53;;;4.73;;
19735;SDS011;32064;49.310;8.646;2023-01-23T13:20:24;6.63;;;5.57;;
19735;SDS011;32064;49.310;8.646;2023-01-23T13:23:17;8.13;;;5.27;;
19735;SDS011;32064;49.310;8.646;2023-01-23T13:25:46;6.20;;;5.17;;
19735;SDS011;32064;49.310;8.646;2023-01-23T13:31:40;4.93;;;4.43;;
19735;SDS011;32064;49.310;8.646;2023-01-23T13:36:40;6.27;;;5.23;;
19735;SDS011;32064;49.310;8.646;2023-01-23T13:41:41;5.73;;;4.60;;
19735;SDS011;32064;49.310;8.646;2023-01-23T13:52:09;6.03;;;5.20;;
19735;SDS011;32064;49.310;8.646;2023-01-23T13:54:55;5.93;;;4.83;;
19735;SDS011;32064;49.310;8.646;2023-01-23T13:57:40;4.80;;;3.87;;
19735;SDS011;32064;49.310;8.646;2023-01-23T14:00:10;5.93;;;4.50;;
19735;SDS011;32064;49.310;8.646;2023-01-23T14:02:40;5.57;;;4.93;;
19735;SDS011;32064;49.310;8.646;2023-01-23T14:05:31;5.67;;;5.00;;
19735;SDS011;32064;49.310;8.646;2023-01-23T14:08:21;6.30;;;4.53;;
19735;SDS011;32064;49.310;8.646;2023-01-23T14:10:47;6.50;;;5.10;;
19735;SDS011;32064;49.310;8.646;2023-01-23T14:13:14;6.60;;;5.50;;
19735;SDS011;32064;49.310;8.646;2023-01-23T14:15:47;6.07;;;5.03;;
19735;SDS011;32064;49.310;8.646;2023-01-23T14:18:42;5.50;;;4.33;;
19735;SDS011;32064;49.310;8.646;2023-01-23T14:21:29;4.37;;;3.97;;
19735;SDS011;32064;49.310;8.646;2023-01-23T14:23:59;6.10;;;4.97;;
19735;SDS011;32064;49.310;8.646;2023-01-23T14:26:31;5.23;;;4.73;;
19735;SDS011;32064;49.310;8.646;2023-01-23T14:29:02;4.63;;;4.23;;
19735;SDS011;32064;49.310;8.646;2023-01-23T14:31:42;6.33;;;4.97;;
19735;SDS011;32064;49.310;8.646;2023-01-23T14:34:42;7.80;;;4.77;;
19735;SDS011;32064;49.310;8.646;2023-01-23T14:37:03;5.93;;;5.00;;
19735;SDS011;32064;49.310;8.646;2023-01-23T14:39:31;5.67;;;5.07;;
19735;SDS011;32064;49.310;8.646;2023-01-23T14:41:59;5.27;;;4.70;;
19735;SDS011;32064;49.310;8.646;2023-01-23T14:44:39;5.40;;;4.47;;
19735;SDS011;32064;49.310;8.646;2023-01-23T14:47:09;6.20;;;4.80;;
19735;SDS011;32064;49.310;8.646;2023-01-23T14:49:40;7.50;;;4.50;;
19735;SDS011;32064;49.310;8.646;2023-01-23T14:52:06;6.23;;;5.33;;
19735;SDS011;32064;49.310;8.646;2023-01-23T14:54:43;6.60;;;5.37;;
19735;SDS011;32064;49.310;8.646;2023-01-23T14:57:09;5.70;;;5.10;;
19735;SDS011;32064;49.310;8.646;2023-01-23T14:59:37;5.20;;;4.70;;
19735;SDS011;32064;49.310;8.646;2023-01-23T15:07:42;5.23;;;4.70;;
19735;SDS011;32064;49.310;8.646;2023-01-23T15:12:52;5.60;;;4.60;;
19735;SDS011;32064;49.310;8.646;2023-01-23T15:15:25;5.77;;;4.53;;
19735;SDS011;32064;49.310;8.646;2023-01-23T15:17:51;4.77;;;4.30;;
19735;SDS011;32064;49.310;8.646;2023-01-23T15:20:29;5.50;;;4.40;;
19735;SDS011;32064;49.310;8.646;2023-01-23T15:22:55;5.30;;;4.50;;
19735;SDS011;32064;49.310;8.646;2023-01-23T15:25:25;5.40;;;4.47;;
19735;SDS011;32064;49.310;8.646;2023-01-23T15:27:56;5.53;;;4.60;;
19735;SDS011;32064;49.310;8.646;2023-01-23T15:32:57;4.93;;;4.50;;
19735;SDS011;32064;49.310;8.646;2023-01-23T15:35:22;5.33;;;4.70;;
19735;SDS011;32064;49.310;8.646;2023-01-23T15:37:48;6.17;;;5.17;;
19735;SDS011;32064;49.310;8.646;2023-01-23T15:40:26;7.13;;;4.93;;
19735;SDS011;32064;49.310;8.646;2023-01-23T15:43:05;5.97;;;5.40;;
19735;SDS011;32064;49.310;8.646;2023-01-23T15:45:35;6.13;;;5.47;;
19735;SDS011;32064;49.310;8.646;2023-01-23T15:48:00;6.67;;;5.77;;
19735;SDS011;32064;49.310;8.646;2023-01-23T15:50:26;6.73;;;5.63;;
19735;SDS011;32064;49.310;8.646;2023-01-23T15:52:52;6.30;;;5.40;;
19735;SDS011;32064;49.310;8.646;2023-01-23T15:55:19;5.87;;;5.27;;
19735;SDS011;32064;49.310;8.646;2023-01-23T15:57:47;7.97;;;6.13;;
19735;SDS011;32064;49.310;8.646;2023-01-23T16:02:59;7.33;;;6.07;;
19735;SDS011;32064;49.310;8.646;2023-01-23T16:05:29;7.07;;;5.93;;
19735;SDS011;32064;49.310;8.646;2023-01-23T16:07:57;6.47;;;5.67;;
19735;SDS011;32064;49.310;8.646;2023-01-23T16:10:31;6.67;;;5.60;;
19735;SDS011;32064;49.310;8.646;2023-01-23T16:13:00;6.50;;;5.87;;
19735;SDS011;32064;49.310;8.646;2023-01-23T16:15:30;8.80;;;6.47;;
19735;SDS011;32064;49.310;8.646;2023-01-23T16:17:58;7.83;;;6.67;;
19735;SDS011;32064;49.310;8.646;2023-01-23T16:20:27;9.87;;;6.27;;
19735;SDS011;32064;49.310;8.646;2023-01-23T16:23:00;7.17;;;6.37;;
19735;SDS011;32064;49.310;8.646;2023-01-23T16:25:29;6.90;;;5.80;;
19735;SDS011;32064;49.310;8.646;2023-01-23T16:27:56;7.10;;;5.43;;
19735;SDS011;32064;49.310;8.646;2023-01-23T16:30:22;7.43;;;6.47;;
19735;SDS011;32064;49.310;8.646;2023-01-23T16:32:49;6.90;;;6.20;;
19735;SDS011;32064;49.310;8.646;2023-01-23T16:35:15;8.87;;;6.63;;
19735;SDS011;32064;49.310;8.646;2023-01-23T16:37:42;7.37;;;6.00;;
19735;SDS011;32064;49.310;8.646;2023-01-23T16:40:16;6.30;;;5.53;;
19735;SDS011;32064;49.310;8.646;2023-01-23T16:42:47;8.13;;;6.07;;
19735;SDS011;32064;49.310;8.646;2023-01-23T16:45:14;6.37;;;5.77;;
19735;SDS011;32064;49.310;8.646;2023-01-23T16:47:41;6.50;;;5.50;;
19735;SDS011;32064;49.310;8.646;2023-01-23T16:50:08;6.43;;;5.23;;
19735;SDS011;32064;49.310;8.646;2023-01-23T16:52:36;8.90;;;7.57;;
19735;SDS011;32064;49.310;8.646;2023-01-23T16:55:03;9.90;;;7.90;;
19735;SDS011;32064;49.310;8.646;2023-01-23T16:57:39;7.47;;;5.87;;
19735;SDS011;32064;49.310;8.646;2023-01-23T17:00:05;9.20;;;6.67;;